sensor_id;sensor_type;location;lat;lon;timestamp;P1;durP1;ratioP1;P2;durP2;ratioP2
80334;SDS011;69653;52.674;13.574;2024-03-22T00:00:29;15.23;;;6.83;;
80334;SDS011;69653;52.674;13.574;2024-03-22T00:02:54;15.70;;;8.07;;
80334;SDS011;69653;52.674;13.574;2024-03-22T00:05:19;17.20;;;8.23;;
80334;SDS011;69653;52.674;13.574;2024-03-22T00:07:46;18.13;;;8.45;;
80334;SDS011;69653;52.674;13.574;2024-03-22T00:10:11;16.40;;;7.57;;
80334;SDS011;69653;52.674;13.574;2024-03-22T00:12:38;15.00;;;7.88;;
80334;SDS011;69653;52.674;13.574;2024-03-22T00:15:03;14.73;;;7.60;;
80334;SDS011;69653;52.674;13.574;2024-03-22T00:17:28;15.52;;;7.18;;
80334;SDS011;69653;52.674;13.574;2024-03-22T00:19:55;14.88;;;7.50;;
80334;SDS011;69653;52.674;13.574;2024-03-22T00:22:20;15.33;;;7.27;;
80334;SDS011;69653;52.674;13.574;2024-03-22T00:24:45;13.37;;;7.20;;
80334;SDS011;69653;52.674;13.574;2024-03-22T00:27:11;14.97;;;7.57;;
80334;SDS011;69653;52.674;13.574;2024-03-22T00:29:37;14.57;;;7.28;;
80334;SDS011;69653;52.674;13.574;2024-03-22T00:32:03;14.10;;;6.97;;
80334;SDS011;69653;52.674;13.574;2024-03-22T00:34:28;12.57;;;7.17;;
80334;SDS011;69653;52.674;13.574;2024-03-22T00:36:53;14.90;;;7.43;;
80334;SDS011;69653;52.674;13.574;2024-03-22T00:39:18;16.50;;;7.90;;
80334;SDS011;69653;52.674;13.574;2024-03-22T00:41:43;15.47;;;7.90;;
80334;SDS011;69653;52.674;13.574;2024-03-22T00:44:08;15.23;;;7.63;;
80334;SDS011;69653;52.674;13.574;2024-03-22T00:46:34;22.03;;;10.07;;
80334;SDS011;69653;52.674;13.574;2024-03-22T00:49:00;33.53;;;14.85;;
80334;SDS011;69653;52.674;13.574;2024-03-22T00:51:25;24.67;;;13.07;;
80334;SDS011;69653;52.674;13.574;2024-03-22T00:53:51;24.40;;;10.73;;
80334;SDS011;69653;52.674;13.574;2024-03-22T00:56:16;18.27;;;9.27;;
80334;SDS011;69653;52.674;13.574;2024-03-22T00:58:41;15.37;;;7.60;;
80334;SDS011;69653;52.674;13.574;2024-03-22T01:01:06;13.82;;;7.53;;
80334;SDS011;69653;52.674;13.574;2024-03-22T01:03:32;13.52;;;7.38;;
80334;SDS011;69653;52.674;13.574;2024-03-22T01:05:57;15.73;;;8.27;;
80334;SDS011;69653;52.674;13.574;2024-03-22T01:08:22;15.48;;;8.48;;
80334;SDS011;69653;52.674;13.574;2024-03-22T01:10:47;15.10;;;7.47;;
80334;SDS011;69653;52.674;13.574;2024-03-22T01:13:12;14.00;;;7.37;;
80334;SDS011;69653;52.674;13.574;2024-03-22T01:15:38;14.37;;;7.73;;
80334;SDS011;69653;52.674;13.574;2024-03-22T01:18:03;16.23;;;7.67;;
80334;SDS011;69653;52.674;13.574;2024-03-22T01:20:28;16.30;;;8.23;;
80334;SDS011;69653;52.674;13.574;2024-03-22T01:22:54;16.27;;;7.45;;
80334;SDS011;69653;52.674;13.574;2024-03-22T01:25:19;16.00;;;8.33;;
80334;SDS011;69653;52.674;13.574;2024-03-22T01:27:44;15.20;;;7.97;;
80334;SDS011;69653;52.674;13.574;2024-03-22T01:30:09;15.77;;;7.33;;
80334;SDS011;69653;52.674;13.574;2024-03-22T01:32:35;14.93;;;7.85;;
80334;SDS011;69653;52.674;13.574;2024-03-22T01:35:00;14.88;;;7.85;;
80334;SDS011;69653;52.674;13.574;2024-03-22T01:37:25;19.57;;;8.67;;
80334;SDS011;69653;52.674;13.574;2024-03-22T01:39:50;15.57;;;7.47;;
80334;SDS011;69653;52.674;13.574;2024-03-22T01:42:16;18.60;;;9.23;;
80334;SDS011;69653;52.674;13.574;2024-03-22T01:44:41;15.93;;;8.33;;
80334;SDS011;69653;52.674;13.574;2024-03-22T01:47:06;16.77;;;8.70;;
80334;SDS011;69653;52.674;13.574;2024-03-22T01:49:32;18.70;;;9.02;;
80334;SDS011;69653;52.674;13.574;2024-03-22T01:51:57;15.47;;;8.67;;
80334;SDS011;69653;52.674;13.574;2024-03-22T01:54:22;17.90;;;8.80;;
80334;SDS011;69653;52.674;13.574;2024-03-22T01:56:47;16.13;;;8.33;;
80334;SDS011;69653;52.674;13.574;2024-03-22T01:59:13;18.15;;;9.02;;
80334;SDS011;69653;52.674;13.574;2024-03-22T02:01:38;18.47;;;8.97;;
80334;SDS011;69653;52.674;13.574;2024-03-22T02:04:04;20.80;;;9.20;;
80334;SDS011;69653;52.674;13.574;2024-03-22T02:06:29;17.13;;;8.40;;
80334;SDS011;69653;52.674;13.574;2024-03-22T02:08:54;22.93;;;10.73;;
80334;SDS011;69653;52.674;13.574;2024-03-22T02:11:20;19.67;;;9.55;;
80334;SDS011;69653;52.674;13.574;2024-03-22T02:13:45;22.03;;;10.20;;
80334;SDS011;69653;52.674;13.574;2024-03-22T02:16:10;17.97;;;8.77;;
80334;SDS011;69653;52.674;13.574;2024-03-22T02:18:36;20.40;;;9.38;;
80334;SDS011;69653;52.674;13.574;2024-03-22T02:21:01;16.70;;;9.05;;
80334;SDS011;69653;52.674;13.574;2024-03-22T02:23:36;17.83;;;8.63;;
80334;SDS011;69653;52.674;13.574;2024-03-22T02:26:01;23.10;;;10.60;;
80334;SDS011;69653;52.674;13.574;2024-03-22T02:28:27;18.33;;;8.68;;
80334;SDS011;69653;52.674;13.574;2024-03-22T02:30:52;21.93;;;10.20;;
80334;SDS011;69653;52.674;13.574;2024-03-22T02:33:18;20.67;;;8.93;;
80334;SDS011;69653;52.674;13.574;2024-03-22T02:35:43;24.42;;;10.70;;
80334;SDS011;69653;52.674;13.574;2024-03-22T02:38:08;20.83;;;10.47;;
80334;SDS011;69653;52.674;13.574;2024-03-22T02:40:34;20.60;;;10.03;;
80334;SDS011;69653;52.674;13.574;2024-03-22T02:42:59;18.52;;;8.73;;
80334;SDS011;69653;52.674;13.574;2024-03-22T02:45:24;21.10;;;9.40;;
80334;SDS011;69653;52.674;13.574;2024-03-22T02:47:50;19.85;;;9.52;;
80334;SDS011;69653;52.674;13.574;2024-03-22T02:50:15;18.83;;;9.43;;
80334;SDS011;69653;52.674;13.574;2024-03-22T02:52:40;19.77;;;9.93;;
80334;SDS011;69653;52.674;13.574;2024-03-22T02:55:05;19.83;;;9.20;;
80334;SDS011;69653;52.674;13.574;2024-03-22T02:57:31;21.00;;;10.23;;
80334;SDS011;69653;52.674;13.574;2024-03-22T02:59:56;19.03;;;9.10;;
80334;SDS011;69653;52.674;13.574;2024-03-22T03:02:21;22.73;;;9.93;;
80334;SDS011;69653;52.674;13.574;2024-03-22T03:04:46;21.60;;;10.40;;
80334;SDS011;69653;52.674;13.574;2024-03-22T03:07:12;21.20;;;9.23;;
80334;SDS011;69653;52.674;13.574;2024-03-22T03:09:37;19.60;;;9.17;;
80334;SDS011;69653;52.674;13.574;2024-03-22T03:12:02;18.77;;;9.30;;
80334;SDS011;69653;52.674;13.574;2024-03-22T03:14:27;20.47;;;9.07;;
80334;SDS011;69653;52.674;13.574;2024-03-22T03:16:52;20.23;;;8.83;;
80334;SDS011;69653;52.674;13.574;2024-03-22T03:19:18;18.80;;;9.13;;
80334;SDS011;69653;52.674;13.574;2024-03-22T03:21:43;18.05;;;8.82;;
80334;SDS011;69653;52.674;13.574;2024-03-22T03:24:08;19.10;;;8.93;;
80334;SDS011;69653;52.674;13.574;2024-03-22T03:26:34;21.70;;;8.90;;
80334;SDS011;69653;52.674;13.574;2024-03-22T03:28:59;20.40;;;8.50;;
80334;SDS011;69653;52.674;13.574;2024-03-22T03:31:24;19.33;;;9.17;;
80334;SDS011;69653;52.674;13.574;2024-03-22T03:33:50;20.87;;;9.03;;
80334;SDS011;69653;52.674;13.574;2024-03-22T03:36:15;18.63;;;9.63;;
80334;SDS011;69653;52.674;13.574;2024-03-22T03:38:40;24.27;;;11.20;;
80334;SDS011;69653;52.674;13.574;2024-03-22T03:41:06;19.05;;;9.73;;
80334;SDS011;69653;52.674;13.574;2024-03-22T03:43:31;23.43;;;11.30;;
80334;SDS011;69653;52.674;13.574;2024-03-22T03:45:56;19.83;;;8.83;;
80334;SDS011;69653;52.674;13.574;2024-03-22T03:48:22;18.13;;;8.43;;
80334;SDS011;69653;52.674;13.574;2024-03-22T03:50:53;19.47;;;8.47;;
80334;SDS011;69653;52.674;13.574;2024-03-22T03:53:19;20.52;;;9.10;;
80334;SDS011;69653;52.674;13.574;2024-03-22T03:55:45;19.08;;;8.35;;
80334;SDS011;69653;52.674;13.574;2024-03-22T03:58:10;21.60;;;9.10;;
80334;SDS011;69653;52.674;13.574;2024-03-22T04:00:36;17.80;;;8.87;;
80334;SDS011;69653;52.674;13.574;2024-03-22T04:03:01;19.87;;;8.27;;
80334;SDS011;69653;52.674;13.574;2024-03-22T04:05:26;20.07;;;9.03;;
80334;SDS011;69653;52.674;13.574;2024-03-22T04:07:51;21.87;;;9.50;;
80334;SDS011;69653;52.674;13.574;2024-03-22T04:10:17;18.88;;;8.70;;
80334;SDS011;69653;52.674;13.574;2024-03-22T04:12:44;19.60;;;8.33;;
80334;SDS011;69653;52.674;13.574;2024-03-22T04:15:09;18.63;;;8.65;;
80334;SDS011;69653;52.674;13.574;2024-03-22T04:17:35;21.15;;;9.80;;
80334;SDS011;69653;52.674;13.574;2024-03-22T04:20:00;19.07;;;8.83;;
80334;SDS011;69653;52.674;13.574;2024-03-22T04:22:25;18.07;;;8.70;;
80334;SDS011;69653;52.674;13.574;2024-03-22T04:24:50;17.57;;;7.53;;
80334;SDS011;69653;52.674;13.574;2024-03-22T04:27:15;17.07;;;8.33;;
80334;SDS011;69653;52.674;13.574;2024-03-22T04:29:41;19.97;;;8.90;;
80334;SDS011;69653;52.674;13.574;2024-03-22T04:32:06;16.50;;;7.53;;
80334;SDS011;69653;52.674;13.574;2024-03-22T04:34:31;20.37;;;8.93;;
80334;SDS011;69653;52.674;13.574;2024-03-22T04:36:56;17.83;;;7.83;;
80334;SDS011;69653;52.674;13.574;2024-03-22T04:39:22;17.43;;;8.00;;
80334;SDS011;69653;52.674;13.574;2024-03-22T04:41:47;20.17;;;8.43;;
80334;SDS011;69653;52.674;13.574;2024-03-22T04:44:12;19.67;;;8.40;;
80334;SDS011;69653;52.674;13.574;2024-03-22T04:46:37;19.87;;;8.80;;
80334;SDS011;69653;52.674;13.574;2024-03-22T04:49:02;18.97;;;8.33;;
80334;SDS011;69653;52.674;13.574;2024-03-22T04:51:27;18.43;;;8.50;;
80334;SDS011;69653;52.674;13.574;2024-03-22T04:53:53;16.50;;;7.30;;
80334;SDS011;69653;52.674;13.574;2024-03-22T04:56:18;18.47;;;8.33;;
80334;SDS011;69653;52.674;13.574;2024-03-22T04:58:43;15.40;;;7.00;;
80334;SDS011;69653;52.674;13.574;2024-03-22T05:01:08;19.30;;;8.23;;
80334;SDS011;69653;52.674;13.574;2024-03-22T05:03:33;16.80;;;8.57;;
80334;SDS011;69653;52.674;13.574;2024-03-22T05:05:59;19.20;;;7.63;;
80334;SDS011;69653;52.674;13.574;2024-03-22T05:08:24;14.33;;;6.80;;
80334;SDS011;69653;52.674;13.574;2024-03-22T05:10:49;14.10;;;6.47;;
80334;SDS011;69653;52.674;13.574;2024-03-22T05:13:14;18.23;;;7.80;;
80334;SDS011;69653;52.674;13.574;2024-03-22T05:15:39;20.63;;;8.20;;
80334;SDS011;69653;52.674;13.574;2024-03-22T05:18:05;15.87;;;7.83;;
80334;SDS011;69653;52.674;13.574;2024-03-22T05:20:30;15.50;;;7.43;;
80334;SDS011;69653;52.674;13.574;2024-03-22T05:22:55;15.30;;;6.87;;
80334;SDS011;69653;52.674;13.574;2024-03-22T05:25:20;19.40;;;8.27;;
80334;SDS011;69653;52.674;13.574;2024-03-22T05:27:46;18.23;;;6.73;;
80334;SDS011;69653;52.674;13.574;2024-03-22T05:30:11;16.73;;;7.37;;
80334;SDS011;69653;52.674;13.574;2024-03-22T05:32:38;17.80;;;7.82;;
80334;SDS011;69653;52.674;13.574;2024-03-22T05:35:03;16.80;;;8.40;;
80334;SDS011;69653;52.674;13.574;2024-03-22T05:37:29;17.75;;;7.53;;
80334;SDS011;69653;52.674;13.574;2024-03-22T05:39:54;17.80;;;7.72;;
80334;SDS011;69653;52.674;13.574;2024-03-22T05:42:19;17.38;;;9.13;;
80334;SDS011;69653;52.674;13.574;2024-03-22T05:44:44;16.10;;;8.23;;
80334;SDS011;69653;52.674;13.574;2024-03-22T05:47:10;16.07;;;7.83;;
80334;SDS011;69653;52.674;13.574;2024-03-22T05:49:35;17.87;;;8.40;;
80334;SDS011;69653;52.674;13.574;2024-03-22T05:52:00;15.80;;;7.33;;
80334;SDS011;69653;52.674;13.574;2024-03-22T05:54:25;18.33;;;8.83;;
80334;SDS011;69653;52.674;13.574;2024-03-22T05:56:51;19.08;;;8.15;;
80334;SDS011;69653;52.674;13.574;2024-03-22T05:59:16;19.33;;;8.97;;
80334;SDS011;69653;52.674;13.574;2024-03-22T06:01:41;17.50;;;7.73;;
80334;SDS011;69653;52.674;13.574;2024-03-22T06:04:07;16.67;;;8.23;;
80334;SDS011;69653;52.674;13.574;2024-03-22T06:06:32;16.77;;;8.17;;
80334;SDS011;69653;52.674;13.574;2024-03-22T06:08:57;17.60;;;7.47;;
80334;SDS011;69653;52.674;13.574;2024-03-22T06:11:25;16.15;;;7.65;;
80334;SDS011;69653;52.674;13.574;2024-03-22T06:13:50;14.97;;;7.30;;
80334;SDS011;69653;52.674;13.574;2024-03-22T06:16:16;18.05;;;7.70;;
80334;SDS011;69653;52.674;13.574;2024-03-22T06:18:41;18.20;;;7.47;;
80334;SDS011;69653;52.674;13.574;2024-03-22T06:21:06;16.03;;;7.43;;
80334;SDS011;69653;52.674;13.574;2024-03-22T06:23:32;15.07;;;7.37;;
80334;SDS011;69653;52.674;13.574;2024-03-22T06:25:57;18.40;;;7.25;;
80334;SDS011;69653;52.674;13.574;2024-03-22T06:28:22;18.43;;;8.53;;
80334;SDS011;69653;52.674;13.574;2024-03-22T06:30:48;18.92;;;8.73;;
80334;SDS011;69653;52.674;13.574;2024-03-22T06:33:13;18.13;;;8.13;;
80334;SDS011;69653;52.674;13.574;2024-03-22T06:35:38;16.47;;;8.07;;
80334;SDS011;69653;52.674;13.574;2024-03-22T06:38:03;19.87;;;8.17;;
80334;SDS011;69653;52.674;13.574;2024-03-22T06:40:29;17.10;;;8.30;;
80334;SDS011;69653;52.674;13.574;2024-03-22T06:42:54;15.83;;;7.77;;
80334;SDS011;69653;52.674;13.574;2024-03-22T06:45:19;18.63;;;8.13;;
80334;SDS011;69653;52.674;13.574;2024-03-22T06:47:45;20.27;;;9.00;;
80334;SDS011;69653;52.674;13.574;2024-03-22T06:50:14;17.98;;;7.65;;
80334;SDS011;69653;52.674;13.574;2024-03-22T06:52:40;19.67;;;8.90;;
80334;SDS011;69653;52.674;13.574;2024-03-22T06:55:05;19.80;;;8.63;;
80334;SDS011;69653;52.674;13.574;2024-03-22T06:57:31;16.95;;;7.47;;
80334;SDS011;69653;52.674;13.574;2024-03-22T06:59:57;19.38;;;8.68;;
80334;SDS011;69653;52.674;13.574;2024-03-22T07:02:23;17.00;;;7.23;;
80334;SDS011;69653;52.674;13.574;2024-03-22T07:04:48;17.87;;;7.63;;
80334;SDS011;69653;52.674;13.574;2024-03-22T07:07:13;19.10;;;8.33;;
80334;SDS011;69653;52.674;13.574;2024-03-22T07:09:38;18.70;;;7.87;;
80334;SDS011;69653;52.674;13.574;2024-03-22T07:12:04;16.98;;;7.68;;
80334;SDS011;69653;52.674;13.574;2024-03-22T07:14:29;19.30;;;8.17;;
80334;SDS011;69653;52.674;13.574;2024-03-22T07:16:54;21.00;;;8.30;;
80334;SDS011;69653;52.674;13.574;2024-03-22T07:19:20;18.73;;;8.67;;
80334;SDS011;69653;52.674;13.574;2024-03-22T07:21:48;17.95;;;8.68;;
80334;SDS011;69653;52.674;13.574;2024-03-22T07:24:13;16.05;;;8.63;;
80334;SDS011;69653;52.674;13.574;2024-03-22T07:26:38;19.13;;;8.30;;
80334;SDS011;69653;52.674;13.574;2024-03-22T07:29:04;18.07;;;7.93;;
80334;SDS011;69653;52.674;13.574;2024-03-22T07:31:29;18.03;;;8.20;;
80334;SDS011;69653;52.674;13.574;2024-03-22T07:33:54;15.33;;;6.97;;
80334;SDS011;69653;52.674;13.574;2024-03-22T07:36:20;18.15;;;8.75;;
80334;SDS011;69653;52.674;13.574;2024-03-22T07:38:45;16.93;;;8.50;;
80334;SDS011;69653;52.674;13.574;2024-03-22T07:41:11;17.10;;;8.40;;
80334;SDS011;69653;52.674;13.574;2024-03-22T07:43:36;16.67;;;7.67;;
80334;SDS011;69653;52.674;13.574;2024-03-22T07:46:01;16.83;;;7.50;;
80334;SDS011;69653;52.674;13.574;2024-03-22T07:48:26;17.50;;;8.93;;
80334;SDS011;69653;52.674;13.574;2024-03-22T07:50:58;21.10;;;9.90;;
80334;SDS011;69653;52.674;13.574;2024-03-22T07:53:23;17.67;;;8.30;;
80334;SDS011;69653;52.674;13.574;2024-03-22T07:55:48;19.58;;;9.77;;
80334;SDS011;69653;52.674;13.574;2024-03-22T07:58:14;20.13;;;9.93;;
80334;SDS011;69653;52.674;13.574;2024-03-22T08:00:39;24.30;;;9.13;;
80334;SDS011;69653;52.674;13.574;2024-03-22T08:03:04;22.77;;;10.77;;
80334;SDS011;69653;52.674;13.574;2024-03-22T08:05:29;19.10;;;8.50;;
80334;SDS011;69653;52.674;13.574;2024-03-22T08:07:54;18.67;;;7.87;;
80334;SDS011;69653;52.674;13.574;2024-03-22T08:10:20;19.80;;;9.27;;
80334;SDS011;69653;52.674;13.574;2024-03-22T08:12:45;20.63;;;8.60;;
80334;SDS011;69653;52.674;13.574;2024-03-22T08:15:10;19.80;;;9.27;;
80334;SDS011;69653;52.674;13.574;2024-03-22T08:17:35;20.83;;;10.33;;
80334;SDS011;69653;52.674;13.574;2024-03-22T08:20:00;22.73;;;10.40;;
80334;SDS011;69653;52.674;13.574;2024-03-22T08:22:26;22.20;;;9.50;;
80334;SDS011;69653;52.674;13.574;2024-03-22T08:24:51;22.47;;;9.90;;
80334;SDS011;69653;52.674;13.574;2024-03-22T08:27:16;20.97;;;9.80;;
80334;SDS011;69653;52.674;13.574;2024-03-22T08:29:41;19.33;;;9.90;;
80334;SDS011;69653;52.674;13.574;2024-03-22T08:32:07;21.60;;;9.73;;
80334;SDS011;69653;52.674;13.574;2024-03-22T08:34:32;22.98;;;10.40;;
80334;SDS011;69653;52.674;13.574;2024-03-22T08:36:57;23.13;;;10.17;;
80334;SDS011;69653;52.674;13.574;2024-03-22T08:39:22;24.50;;;11.17;;
80334;SDS011;69653;52.674;13.574;2024-03-22T08:41:49;23.27;;;10.60;;
80334;SDS011;69653;52.674;13.574;2024-03-22T08:44:14;22.77;;;11.53;;
80334;SDS011;69653;52.674;13.574;2024-03-22T08:46:39;22.53;;;10.93;;
80334;SDS011;69653;52.674;13.574;2024-03-22T08:49:04;21.53;;;9.80;;
80334;SDS011;69653;52.674;13.574;2024-03-22T08:51:30;22.50;;;10.03;;
80334;SDS011;69653;52.674;13.574;2024-03-22T08:53:55;22.98;;;10.60;;
80334;SDS011;69653;52.674;13.574;2024-03-22T08:56:20;27.20;;;12.57;;
80334;SDS011;69653;52.674;13.574;2024-03-22T08:58:45;23.73;;;11.43;;
80334;SDS011;69653;52.674;13.574;2024-03-22T09:01:11;22.17;;;9.43;;
80334;SDS011;69653;52.674;13.574;2024-03-22T09:03:36;22.50;;;10.30;;
80334;SDS011;69653;52.674;13.574;2024-03-22T09:06:01;23.52;;;10.75;;
80334;SDS011;69653;52.674;13.574;2024-03-22T09:08:27;23.30;;;10.88;;
80334;SDS011;69653;52.674;13.574;2024-03-22T09:10:54;24.63;;;10.82;;
80334;SDS011;69653;52.674;13.574;2024-03-22T09:13:19;20.73;;;10.30;;
80334;SDS011;69653;52.674;13.574;2024-03-22T09:15:44;26.80;;;11.03;;
80334;SDS011;69653;52.674;13.574;2024-03-22T09:18:09;24.73;;;11.43;;
80334;SDS011;69653;52.674;13.574;2024-03-22T09:20:35;24.63;;;11.40;;
80334;SDS011;69653;52.674;13.574;2024-03-22T09:23:00;24.37;;;11.70;;
80334;SDS011;69653;52.674;13.574;2024-03-22T09:25:25;23.27;;;11.40;;
80334;SDS011;69653;52.674;13.574;2024-03-22T09:27:50;19.93;;;9.47;;
80334;SDS011;69653;52.674;13.574;2024-03-22T09:30:15;23.30;;;10.70;;
80334;SDS011;69653;52.674;13.574;2024-03-22T09:32:41;24.63;;;12.57;;
80334;SDS011;69653;52.674;13.574;2024-03-22T09:35:07;22.83;;;10.57;;
80334;SDS011;69653;52.674;13.574;2024-03-22T09:37:32;20.47;;;11.13;;
80334;SDS011;69653;52.674;13.574;2024-03-22T09:39:58;24.83;;;11.63;;
80334;SDS011;69653;52.674;13.574;2024-03-22T09:42:23;19.75;;;9.27;;
80334;SDS011;69653;52.674;13.574;2024-03-22T09:44:50;20.73;;;10.30;;
80334;SDS011;69653;52.674;13.574;2024-03-22T09:47:16;21.77;;;10.53;;
80334;SDS011;69653;52.674;13.574;2024-03-22T09:49:42;20.75;;;10.15;;
80334;SDS011;69653;52.674;13.574;2024-03-22T09:52:11;24.08;;;10.82;;
80334;SDS011;69653;52.674;13.574;2024-03-22T09:54:36;23.88;;;10.85;;
80334;SDS011;69653;52.674;13.574;2024-03-22T09:57:03;25.75;;;11.55;;
80334;SDS011;69653;52.674;13.574;2024-03-22T09:59:29;23.85;;;10.98;;
80334;SDS011;69653;52.674;13.574;2024-03-22T10:01:54;23.43;;;11.03;;
80334;SDS011;69653;52.674;13.574;2024-03-22T10:04:19;24.87;;;11.37;;
80334;SDS011;69653;52.674;13.574;2024-03-22T10:06:45;22.80;;;10.13;;
80334;SDS011;69653;52.674;13.574;2024-03-22T10:09:11;20.75;;;10.30;;
80334;SDS011;69653;52.674;13.574;2024-03-22T10:11:36;22.97;;;11.60;;
80334;SDS011;69653;52.674;13.574;2024-03-22T10:14:02;23.33;;;10.50;;
80334;SDS011;69653;52.674;13.574;2024-03-22T10:16:32;20.73;;;10.40;;
80334;SDS011;69653;52.674;13.574;2024-03-22T10:18:57;20.88;;;10.15;;
80334;SDS011;69653;52.674;13.574;2024-03-22T10:21:22;25.03;;;11.23;;
80334;SDS011;69653;52.674;13.574;2024-03-22T10:23:47;22.87;;;9.90;;
80334;SDS011;69653;52.674;13.574;2024-03-22T10:26:13;22.17;;;11.27;;
80334;SDS011;69653;52.674;13.574;2024-03-22T10:28:45;24.83;;;11.30;;
80334;SDS011;69653;52.674;13.574;2024-03-22T10:31:11;18.73;;;9.32;;
80334;SDS011;69653;52.674;13.574;2024-03-22T10:33:37;21.80;;;10.27;;
80334;SDS011;69653;52.674;13.574;2024-03-22T10:36:03;23.30;;;10.63;;
80334;SDS011;69653;52.674;13.574;2024-03-22T10:38:29;17.35;;;9.48;;
80334;SDS011;69653;52.674;13.574;2024-03-22T10:40:55;20.75;;;10.55;;
80334;SDS011;69653;52.674;13.574;2024-03-22T10:43:22;19.48;;;10.25;;
80334;SDS011;69653;52.674;13.574;2024-03-22T10:45:47;22.80;;;9.87;;
80334;SDS011;69653;52.674;13.574;2024-03-22T10:48:13;21.30;;;10.40;;
80334;SDS011;69653;52.674;13.574;2024-03-22T10:50:40;22.17;;;9.80;;
80334;SDS011;69653;52.674;13.574;2024-03-22T10:53:07;18.17;;;9.18;;
80334;SDS011;69653;52.674;13.574;2024-03-22T10:55:34;17.52;;;8.68;;
80334;SDS011;69653;52.674;13.574;2024-03-22T10:58:00;21.45;;;9.80;;
80334;SDS011;69653;52.674;13.574;2024-03-22T11:00:34;19.57;;;10.10;;
80334;SDS011;69653;52.674;13.574;2024-03-22T11:03:03;19.83;;;9.48;;
80334;SDS011;69653;52.674;13.574;2024-03-22T11:05:28;17.65;;;9.43;;
80334;SDS011;69653;52.674;13.574;2024-03-22T11:08:00;18.30;;;8.50;;
80334;SDS011;69653;52.674;13.574;2024-03-22T11:10:28;15.70;;;7.20;;
80334;SDS011;69653;52.674;13.574;2024-03-22T11:12:55;18.90;;;8.55;;
80334;SDS011;69653;52.674;13.574;2024-03-22T11:15:20;18.60;;;9.37;;
80334;SDS011;69653;52.674;13.574;2024-03-22T11:17:46;18.58;;;9.13;;
80334;SDS011;69653;52.674;13.574;2024-03-22T11:20:12;15.45;;;7.80;;
80334;SDS011;69653;52.674;13.574;2024-03-22T11:22:37;21.23;;;9.67;;
80334;SDS011;69653;52.674;13.574;2024-03-22T11:25:02;20.87;;;10.53;;
80334;SDS011;69653;52.674;13.574;2024-03-22T11:27:28;16.30;;;8.60;;
80334;SDS011;69653;52.674;13.574;2024-03-22T11:29:53;19.00;;;9.20;;
80334;SDS011;69653;52.674;13.574;2024-03-22T11:32:19;16.50;;;8.60;;
80334;SDS011;69653;52.674;13.574;2024-03-22T11:34:45;15.57;;;8.03;;
80334;SDS011;69653;52.674;13.574;2024-03-22T11:37:11;16.23;;;8.27;;
80334;SDS011;69653;52.674;13.574;2024-03-22T11:39:37;16.30;;;8.20;;
80334;SDS011;69653;52.674;13.574;2024-03-22T11:42:03;18.08;;;8.65;;
80334;SDS011;69653;52.674;13.574;2024-03-22T11:44:29;18.58;;;9.15;;
80334;SDS011;69653;52.674;13.574;2024-03-22T11:46:55;18.10;;;8.65;;
80334;SDS011;69653;52.674;13.574;2024-03-22T11:49:20;18.63;;;8.60;;
80334;SDS011;69653;52.674;13.574;2024-03-22T11:51:45;20.20;;;9.43;;
80334;SDS011;69653;52.674;13.574;2024-03-22T11:54:10;20.43;;;8.70;;
80334;SDS011;69653;52.674;13.574;2024-03-22T11:56:36;19.27;;;9.07;;
80334;SDS011;69653;52.674;13.574;2024-03-22T11:59:01;21.17;;;9.90;;
80334;SDS011;69653;52.674;13.574;2024-03-22T12:01:28;20.63;;;9.27;;
80334;SDS011;69653;52.674;13.574;2024-03-22T12:03:53;18.73;;;8.90;;
80334;SDS011;69653;52.674;13.574;2024-03-22T12:06:18;14.37;;;8.00;;
80334;SDS011;69653;52.674;13.574;2024-03-22T12:08:45;16.80;;;8.20;;
80334;SDS011;69653;52.674;13.574;2024-03-22T12:11:10;21.17;;;9.63;;
80334;SDS011;69653;52.674;13.574;2024-03-22T12:13:35;19.83;;;9.57;;
80334;SDS011;69653;52.674;13.574;2024-03-22T12:16:01;22.05;;;9.45;;
80334;SDS011;69653;52.674;13.574;2024-03-22T12:18:27;18.08;;;9.77;;
80334;SDS011;69653;52.674;13.574;2024-03-22T12:20:52;23.10;;;9.38;;
80334;SDS011;69653;52.674;13.574;2024-03-22T12:23:17;18.80;;;9.40;;
80334;SDS011;69653;52.674;13.574;2024-03-22T12:25:43;18.83;;;9.47;;
80334;SDS011;69653;52.674;13.574;2024-03-22T12:28:08;25.23;;;10.83;;
80334;SDS011;69653;52.674;13.574;2024-03-22T12:30:33;20.23;;;8.93;;
80334;SDS011;69653;52.674;13.574;2024-03-22T12:32:58;22.88;;;9.15;;
80334;SDS011;69653;52.674;13.574;2024-03-22T12:35:23;27.00;;;11.57;;
80334;SDS011;69653;52.674;13.574;2024-03-22T12:37:49;22.25;;;9.80;;
80334;SDS011;69653;52.674;13.574;2024-03-22T12:40:15;24.83;;;10.93;;
80334;SDS011;69653;52.674;13.574;2024-03-22T12:42:40;21.80;;;9.70;;
80334;SDS011;69653;52.674;13.574;2024-03-22T12:45:05;22.35;;;10.45;;
80334;SDS011;69653;52.674;13.574;2024-03-22T12:47:32;26.27;;;11.13;;
80334;SDS011;69653;52.674;13.574;2024-03-22T12:49:57;26.63;;;11.27;;
80334;SDS011;69653;52.674;13.574;2024-03-22T12:52:22;24.90;;;11.27;;
80334;SDS011;69653;52.674;13.574;2024-03-22T12:54:48;26.63;;;10.90;;
80334;SDS011;69653;52.674;13.574;2024-03-22T12:57:13;23.03;;;9.93;;
80334;SDS011;69653;52.674;13.574;2024-03-22T12:59:38;28.50;;;11.60;;
80334;SDS011;69653;52.674;13.574;2024-03-22T13:02:03;24.70;;;11.10;;
80334;SDS011;69653;52.674;13.574;2024-03-22T13:04:29;29.33;;;12.10;;
80334;SDS011;69653;52.674;13.574;2024-03-22T13:06:54;30.43;;;12.97;;
80334;SDS011;69653;52.674;13.574;2024-03-22T13:09:20;31.00;;;13.10;;
80334;SDS011;69653;52.674;13.574;2024-03-22T13:11:46;31.90;;;13.52;;
80334;SDS011;69653;52.674;13.574;2024-03-22T13:14:12;25.90;;;12.63;;
80334;SDS011;69653;52.674;13.574;2024-03-22T13:16:37;34.87;;;15.03;;
80334;SDS011;69653;52.674;13.574;2024-03-22T13:19:02;31.30;;;13.57;;
80334;SDS011;69653;52.674;13.574;2024-03-22T13:21:29;35.95;;;14.20;;
80334;SDS011;69653;52.674;13.574;2024-03-22T13:23:56;31.15;;;13.02;;
80334;SDS011;69653;52.674;13.574;2024-03-22T13:26:21;32.37;;;13.07;;
80334;SDS011;69653;52.674;13.574;2024-03-22T13:28:46;31.63;;;12.43;;
80334;SDS011;69653;52.674;13.574;2024-03-22T13:31:14;34.80;;;13.47;;
80334;SDS011;69653;52.674;13.574;2024-03-22T13:33:40;33.72;;;13.32;;
80334;SDS011;69653;52.674;13.574;2024-03-22T13:36:06;38.88;;;13.60;;
80334;SDS011;69653;52.674;13.574;2024-03-22T13:38:31;24.93;;;9.40;;
80334;SDS011;69653;52.674;13.574;2024-03-22T13:40:56;30.93;;;10.87;;
80334;SDS011;69653;52.674;13.574;2024-03-22T13:43:22;27.73;;;12.35;;
80334;SDS011;69653;52.674;13.574;2024-03-22T13:45:48;29.63;;;13.48;;
80334;SDS011;69653;52.674;13.574;2024-03-22T13:48:15;29.75;;;12.70;;
80334;SDS011;69653;52.674;13.574;2024-03-22T13:50:41;31.03;;;12.13;;
80334;SDS011;69653;52.674;13.574;2024-03-22T13:53:06;24.40;;;10.02;;
80334;SDS011;69653;52.674;13.574;2024-03-22T13:55:32;27.60;;;11.55;;
80334;SDS011;69653;52.674;13.574;2024-03-22T13:57:57;26.13;;;10.53;;
80334;SDS011;69653;52.674;13.574;2024-03-22T14:00:22;29.40;;;12.10;;
80334;SDS011;69653;52.674;13.574;2024-03-22T14:02:50;30.63;;;13.00;;
80334;SDS011;69653;52.674;13.574;2024-03-22T14:05:18;32.90;;;13.63;;
80334;SDS011;69653;52.674;13.574;2024-03-22T14:07:43;29.67;;;12.87;;